Terminal Aerodrome Forecast
Issued by NWS

Home | Current Version | Previous Version | Text Only | Print | Product List | Glossary On
Versions: 1 2 3 4 5 6 7 8 9 10 11 12 13 14 15 16 17 18
000
FTUS46 KSGX 010107 AAA
TAFONT
TAF AMD
KONT 010107Z 0101/0206 26013KT P6SM VCSH BKN040
     FM010400 26006KT P6SM BKN030
     FM012000 26012KT P6SM FEW035
     FM020400 VRB04KT P6SM FEW025=

USA.gov is the U.S. government's official web portal to all federal, state and local government web resources and services.